首页
METAR-TAF:

METAR-TAF

机场 :

Golden, 不列颠哥伦比亚, 加拿大

纬度: 51-18N, 经度: 116-59W, 海拔: 785米

当前天气观测

该预报发布于31分钟前的00:00 UTC
风速3节,风向北转西北,在西东转东北之间变化
温度 12°C
湿度 58%
气压 1012 hPa
能見度: 32.2公里
少量云层高于3000英尺
多云层高于8000英尺
阴天层高于12000英尺
附近有阵雨

METAR: CYGE 080000Z 34003KT 280V060 20SM VCSH FEW030 BKN080 OVC120 12/04 A2987 RMK CU2AC5AC1 VCSH ALQDS LAST STFD OBS/NEXT 081200Z SLP126 DENSITY ALT 2900FT

时间: 18:31 (00:31 UTC)


TAF: 丢失

超过4000个机场的气象观测和天气预报(METAR&TAF报告)。

可查询的气象台以黄色和红色小点在地图上表示。

将鼠标移到小点上方,可查看气象台名称。

然后点击查看天气观测和预报。

如需切换地图:点击带黑十字的绿色按钮放大地图;点击带横线的绿色按钮缩小地图;或者点击绿色箭头查看邻近地区的地图。


METAR-TAF: